Time;durP1;ratioP1;P1;durP2;ratioP2;P2;SDS_P1;SDS_P2;PMS_P1;PMS_P2;Temp;Humidity;BMP_temperature;BMP_pressure;BME280_temperature;BME280_humidity;BME280_pressure;Samples;Min_cycle;Max_cycle;Signal;HPM_P1;HPM_P2
2023/06/22 01:07:56;;;;;;;;;;;;;;;;;;;;;
2023/06/22 01:19:02;;;;;;;54.17;49.70;;;15.30;99.90;;;;;;6220540;22;20035;-81
2023/06/22 03:08:58;;;;;;;;;;;;;;;;;;;;;
2023/06/22 03:15:31;;;;;;;122.93;103.80;;;14.40;99.90;;;;;;6083978;22;20112;-76
2023/06/22 03:17:56;;;;;;;98.40;88.72;;;14.30;99.90;;;;;;6211724;23;20016;-76
2023/06/22 03:20:23;;;;;;;111.68;100.53;;;14.30;99.90;;;;;;6212067;23;20436;-75
2023/06/22 03:22:48;;;;;;;91.55;82.70;;;14.30;99.90;;;;;;6212285;23;20087;-76
2023/06/22 03:25:14;;;;;;;105.47;94.72;;;14.30;99.90;;;;;;6212352;23;20527;-75
2023/06/22 03:27:41;;;;;;;85.90;78.05;;;14.30;99.90;;;;;;6235858;23;20099;-75
2023/06/22 03:30:08;;;;;;;77.68;70.97;;;14.30;99.90;;;;;;6236918;23;20008;-76
2023/06/22 03:32:34;;;;;;;74.30;67.82;;;14.30;99.90;;;;;;6237641;23;20039;-76
2023/06/22 03:35:00;;;;;;;96.95;87.35;;;14.20;99.90;;;;;;6237510;22;20012;-75
2023/06/22 03:37:26;;;;;;;97.43;88.00;;;14.20;99.90;;;;;;6185472;23;20453;-76
2023/06/22 03:39:52;;;;;;;75.60;69.15;;;14.20;99.90;;;;;;6236613;23;20008;-75
2023/06/22 03:42:18;;;;;;;133.00;108.47;;;14.30;99.90;;;;;;6237537;23;20028;-75
2023/06/22 03:44:44;;;;;;;76.50;70.20;;;14.30;99.90;;;;;;6237557;23;20348;-75
2023/06/22 03:47:09;;;;;;;95.28;85.93;;;14.30;99.90;;;;;;6236774;23;20016;-75
2023/06/22 03:49:35;;;;;;;102.03;92.13;;;14.30;99.90;;;;;;6237013;23;20397;-76
2023/06/22 03:52:02;;;;;;;91.13;82.65;;;14.30;99.90;;;;;;6236659;23;20091;-76
2023/06/22 03:54:29;;;;;;;119.60;100.85;;;14.30;99.90;;;;;;6186699;23;20055;-76
2023/06/22 03:56:56;;;;;;;91.60;82.95;;;14.40;99.90;;;;;;6236610;23;20330;-76
2023/06/22 03:59:21;;;;;;;80.78;73.72;;;14.40;99.90;;;;;;6211806;23;20039;-77
2023/06/22 04:01:47;;;;;;;91.05;82.72;;;14.40;99.90;;;;;;6186269;23;20013;-76
2023/06/22 04:04:12;;;;;;;93.63;83.75;;;14.40;99.90;;;;;;6237370;23;20016;-76
2023/06/22 04:06:38;;;;;;;88.32;79.22;;;14.40;99.90;;;;;;6237439;22;20016;-75
2023/06/22 04:09:05;;;;;;;86.20;77.88;;;14.50;99.90;;;;;;6238670;23;20087;-76
2023/06/22 04:11:30;;;;;;;74.10;67.47;;;14.50;99.90;;;;;;6239889;23;20009;-76
2023/06/22 04:13:56;;;;;;;79.10;72.10;;;14.50;99.90;;;;;;6238980;23;20462;-76
2023/06/22 04:16:22;;;;;;;70.80;64.93;;;14.50;99.90;;;;;;6238590;22;20008;-75
2023/06/22 04:18:47;;;;;;;67.97;62.35;;;14.50;99.90;;;;;;6238850;23;20372;-76
2023/06/22 04:21:13;;;;;;;85.03;76.80;;;14.60;99.90;;;;;;6238652;23;20020;-76
2023/06/22 04:23:39;;;;;;;76.32;69.90;;;14.60;99.90;;;;;;6239389;23;20412;-76
2023/06/22 04:26:05;;;;;;;69.90;63.83;;;14.60;99.90;;;;;;6238432;22;20016;-76
2023/06/22 04:28:35;;;;;;;71.25;65.20;;;14.80;99.90;;;;;;6238493;23;20035;-76
2023/06/22 04:31:04;;;;;;;73.30;66.35;;;14.90;99.90;;;;;;6238854;23;20016;-77
2023/06/22 04:33:30;;;;;;;72.07;65.75;;;15.10;99.90;;;;;;6239243;23;20353;-76
2023/06/22 04:36:00;;;;;;;70.18;63.95;;;15.40;99.90;;;;;;6238274;22;20016;-76
2023/06/22 04:38:26;;;;;;;62.80;57.67;;;15.70;99.90;;;;;;6238698;23;20017;-75
2023/06/22 04:40:53;;;;;;;57.42;52.83;;;15.90;99.90;;;;;;6238357;23;20024;-76
2023/06/22 04:43:19;;;;;;;68.65;62.35;;;16.10;99.90;;;;;;6238853;23;20035;-76
2023/06/22 04:45:44;;;;;;;63.60;58.10;;;16.50;99.90;;;;;;6187929;23;20292;-77
2023/06/22 04:48:15;;;;;;;53.63;49.47;;;16.90;99.90;;;;;;6188431;23;20008;-76
2023/06/22 04:50:41;;;;;;;53.30;49.00;;;17.20;99.90;;;;;;6238937;23;20089;-77
2023/06/22 04:53:09;;;;;;;52.50;48.25;;;17.60;99.90;;;;;;6238997;23;20005;-76
2023/06/22 04:55:37;;;;;;;63.72;58.15;;;18.00;99.90;;;;;;6239041;22;20024;-75
2023/06/22 04:58:04;;;;;;;65.95;60.08;;;18.40;99.90;;;;;;6237344;23;20009;-76
2023/06/22 05:00:30;;;;;;;58.85;53.88;;;18.70;99.90;;;;;;6237848;23;20449;-76
2023/06/22 05:02:57;;;;;;;62.08;56.38;;;19.00;99.90;;;;;;6237951;23;20012;-76
2023/06/22 05:05:23;;;;;;;60.80;55.50;;;19.30;99.90;;;;;;6212810;23;20012;-76
2023/06/22 05:07:52;;;;;;;59.00;53.80;;;19.60;99.90;;;;;;6237944;23;20017;-76
2023/06/22 05:10:18;;;;;;;58.78;53.63;;;19.80;99.90;;;;;;6238342;23;20013;-74
2023/06/22 05:12:44;;;;;;;57.28;52.30;;;20.00;99.90;;;;;;6237778;23;20049;-78
2023/06/22 05:15:10;;;;;;;55.75;51.05;;;20.30;99.90;;;;;;6238592;22;20008;-75
2023/06/22 05:17:36;;;;;;;55.63;50.65;;;20.40;99.90;;;;;;6185879;23;20452;-76
2023/06/22 05:20:06;;;;;;;50.60;46.25;;;20.70;99.90;;;;;;6237669;23;20059;-75
2023/06/22 05:22:31;;;;;;;50.08;45.67;;;21.00;99.90;;;;;;6238722;23;20040;-75
2023/06/22 05:24:57;;;;;;;47.75;43.65;;;21.20;99.90;;;;;;6237229;22;20014;-75
2023/06/22 05:27:23;;;;;;;46.33;42.35;;;21.50;99.90;;;;;;6235816;23;20398;-75
2023/06/22 05:29:48;;;;;;;46.97;42.97;;;21.70;99.90;;;;;;6237982;23;20008;-75
2023/06/22 05:32:14;;;;;;;45.28;41.45;;;21.70;99.90;;;;;;6237719;23;20047;-76
2023/06/22 05:34:39;;;;;;;44.90;41.15;;;21.90;99.90;;;;;;6236849;23;20119;-76
2023/06/22 05:37:06;;;;;;;44.63;40.67;;;22.10;99.90;;;;;;6237929;23;20012;-76
2023/06/22 05:39:31;;;;;;;42.25;38.58;;;22.30;99.90;;;;;;6238797;23;20043;-76
2023/06/22 05:41:57;;;;;;;42.40;39.00;;;22.30;99.90;;;;;;6238693;23;20270;-75
2023/06/22 05:44:23;;;;;;;39.63;36.33;;;22.20;99.90;;;;;;6237936;23;20023;-76
2023/06/22 05:46:48;;;;;;;39.95;36.72;;;22.20;99.90;;;;;;6237358;22;20009;-76
2023/06/22 05:49:15;;;;;;;41.60;38.10;;;22.00;99.90;;;;;;6238186;23;20032;-76
2023/06/22 05:51:41;;;;;;;41.75;38.25;;;21.80;99.90;;;;;;6238700;23;20024;-76
2023/06/22 05:54:07;;;;;;;38.90;35.60;;;21.70;99.90;;;;;;6238504;23;20125;-76
2023/06/22 05:56:33;;;;;;;38.58;35.30;;;21.60;99.90;;;;;;6238265;22;20019;-76
2023/06/22 05:58:59;;;;;;;39.65;36.25;;;21.70;99.90;;;;;;6237702;23;20099;-76
2023/06/22 06:01:25;;;;;;;37.25;33.97;;;21.70;99.90;;;;;;6238029;23;20023;-76
2023/06/22 06:03:52;;;;;;;36.55;33.35;;;21.50;99.90;;;;;;6236285;23;20017;-76
2023/06/22 06:06:21;;;;;;;36.20;33.20;;;21.30;99.90;;;;;;6237083;22;20482;-76
2023/06/22 06:08:46;;;;;;;35.85;32.85;;;21.20;99.90;;;;;;6187886;23;20009;-75
2023/06/22 06:11:12;;;;;;;37.13;34.00;;;20.90;99.90;;;;;;6187812;23;20079;-76
2023/06/22 06:13:38;;;;;;;36.88;33.70;;;20.80;99.90;;;;;;6186481;23;20008;-75
2023/06/22 06:16:03;;;;;;;35.60;32.53;;;20.60;99.90;;;;;;6236450;22;20020;-76
2023/06/22 06:18:29;;;;;;;37.05;33.90;;;20.40;99.90;;;;;;6237208;23;20024;-75
2023/06/22 06:20:55;;;;;;;36.17;33.00;;;20.40;99.90;;;;;;6237334;23;20040;-76
2023/06/22 06:23:20;;;;;;;34.63;31.73;;;20.30;99.90;;;;;;6236117;23;20016;-75
2023/06/22 06:25:46;;;;;;;35.22;32.33;;;20.30;99.90;;;;;;6212106;23;20020;-75
2023/06/22 06:28:11;;;;;;;34.85;31.85;;;20.30;99.90;;;;;;6238249;23;20016;-76
2023/06/22 06:30:37;;;;;;;34.75;31.85;;;20.40;99.90;;;;;;6187844;23;20032;-76
2023/06/22 06:33:08;;;;;;;34.60;31.55;;;20.30;99.90;;;;;;6213214;23;20112;-76
2023/06/22 06:35:34;;;;;;;33.83;30.92;;;20.50;99.90;;;;;;6237114;22;20453;-76
2023/06/22 06:38:00;;;;;;;32.78;29.92;;;20.60;99.90;;;;;;6187506;23;20017;-76
2023/06/22 06:40:25;;;;;;;30.65;28.15;;;20.60;99.90;;;;;;6238080;23;20031;-76
2023/06/22 06:42:51;;;;;;;29.15;26.67;;;20.60;99.90;;;;;;6187776;23;20016;-76
2023/06/22 06:45:22;;;;;;;27.73;25.23;;;20.80;99.90;;;;;;6238001;22;20018;-76
2023/06/22 06:47:48;;;;;;;26.20;23.90;;;20.90;99.90;;;;;;6237050;23;20445;-74
2023/06/22 06:50:15;;;;;;;24.50;22.40;;;20.90;99.90;;;;;;6237913;23;20143;-75
2023/06/22 06:52:41;;;;;;;25.25;23.05;;;21.00;99.90;;;;;;6238095;23;20080;-76
2023/06/22 06:55:11;;;;;;;26.00;23.80;;;21.00;99.90;;;;;;6237888;22;20084;-75
2023/06/22 06:57:38;;;;;;;24.98;22.88;;;21.10;99.90;;;;;;6237706;23;20012;-75
2023/06/22 07:00:12;;;;;;;24.95;22.85;;;21.10;99.90;;;;;;6237576;23;20452;-76
2023/06/22 07:02:42;;;;;;;25.25;22.95;;;21.10;99.90;;;;;;6237670;23;20063;-75
2023/06/22 07:05:08;;;;;;;24.17;22.15;;;21.20;99.90;;;;;;6237452;22;20009;-75
2023/06/22 07:07:34;;;;;;;23.48;21.40;;;21.30;99.90;;;;;;6237464;23;20017;-75
2023/06/22 07:10:00;;;;;;;22.67;20.77;;;21.40;99.90;;;;;;6237973;23;20020;-75
2023/06/22 07:12:26;;;;;;;20.77;18.90;;;21.60;99.90;;;;;;6237860;23;20016;-76
2023/06/22 07:14:52;;;;;;;21.55;19.65;;;21.60;99.90;;;;;;6237178;22;20036;-76
2023/06/22 07:17:18;;;;;;;20.38;18.65;;;21.80;99.90;;;;;;6237507;23;20357;-76
2023/06/22 07:19:44;;;;;;;19.30;17.70;;;21.80;99.90;;;;;;6237772;23;20017;-76
2023/06/22 07:22:10;;;;;;;20.05;18.35;;;21.70;99.90;;;;;;6188079;23;20393;-76
2023/06/22 07:24:37;;;;;;;19.98;18.13;;;21.70;99.90;;;;;;6212410;23;20020;-76
2023/06/22 07:27:03;;;;;;;19.35;17.65;;;21.90;99.90;;;;;;6237489;23;20009;-75
2023/06/22 07:29:29;;;;;;;20.88;18.88;;;22.00;99.90;;;;;;6236879;23;20349;-76
2023/06/22 07:31:56;;;;;;;19.98;18.23;;;22.10;99.90;;;;;;6237602;23;20013;-76
2023/06/22 07:34:22;;;;;;;20.52;18.83;;;22.10;99.90;;;;;;6187303;23;20027;-76
2023/06/22 07:36:47;;;;;;;19.77;17.92;;;22.20;99.90;;;;;;6186983;23;20008;-75
2023/06/22 07:39:14;;;;;;;19.17;17.48;;;22.30;99.90;;;;;;6237306;23;20044;-76
2023/06/22 07:41:43;;;;;;;17.90;16.40;;;22.30;99.90;;;;;;6237205;23;20052;-76
2023/06/22 07:44:09;;;;;;;18.52;16.83;;;22.40;99.90;;;;;;6237660;23;20092;-74
2023/06/22 07:46:35;;;;;;;17.48;15.98;;;22.80;99.90;;;;;;6211834;23;20048;-76
2023/06/22 07:49:01;;;;;;;18.80;17.20;;;23.10;99.90;;;;;;6237746;23;20040;-76
2023/06/22 07:51:27;;;;;;;17.63;16.13;;;23.40;99.90;;;;;;6212177;23;20127;-75
2023/06/22 07:53:52;;;;;;;18.27;16.73;;;23.90;99.90;;;;;;6237208;23;20044;-75
2023/06/22 07:56:21;;;;;;;16.90;15.50;;;24.30;99.90;;;;;;6237208;22;20024;-75
2023/06/22 07:58:47;;;;;;;15.10;13.82;;;24.50;99.90;;;;;;6237548;23;20023;-75
2023/06/22 08:01:14;;;;;;;14.68;13.38;;;24.80;99.90;;;;;;6187251;23;20012;-75
2023/06/22 08:03:39;;;;;;;16.77;15.18;;;25.20;99.90;;;;;;6237029;23;20031;-75
2023/06/22 08:06:05;;;;;;;15.82;14.43;;;25.50;99.90;;;;;;6237231;22;20345;-76
2023/06/22 08:08:31;;;;;;;15.00;13.80;;;25.70;99.90;;;;;;6212217;23;20013;-76
2023/06/22 08:10:57;;;;;;;16.55;15.15;;;26.10;99.90;;;;;;6237629;23;20009;-76
2023/06/22 08:13:23;;;;;;;15.68;14.23;;;26.60;94.00;;;;;;6237469;23;20104;-76
2023/06/22 08:15:49;;;;;;;15.38;13.98;;;26.70;95.30;;;;;;6237061;22;20009;-76
2023/06/22 08:18:16;;;;;;;15.90;14.43;;;26.80;91.00;;;;;;6236937;23;20058;-76
2023/06/22 08:20:42;;;;;;;14.15;12.95;;;26.80;84.20;;;;;;6237440;23;20027;-76
2023/06/22 08:23:07;;;;;;;14.50;13.30;;;26.70;90.30;;;;;;6211876;23;20516;-75
2023/06/22 08:25:34;;;;;;;14.40;13.00;;;26.70;93.10;;;;;;6237213;22;20441;-76
2023/06/22 08:28:01;;;;;;;14.43;13.02;;;26.90;97.40;;;;;;6237143;23;20013;-76
2023/06/22 08:30:26;;;;;;;14.13;12.82;;;27.10;95.20;;;;;;6237036;23;20323;-75
2023/06/22 08:32:52;;;;;;;14.82;13.35;;;27.50;82.60;;;;;;6237333;23;20015;-75
2023/06/22 08:35:17;;;;;;;13.95;12.65;;;27.60;73.40;;;;;;6237683;22;20008;-75
2023/06/22 08:37:45;;;;;;;14.30;13.00;;;27.50;75.00;;;;;;6237069;23;20032;-76
2023/06/22 08:40:11;;;;;;;14.27;13.07;;;27.40;75.60;;;;;;6237080;23;20016;-75
2023/06/22 08:42:37;;;;;;;12.90;11.80;;;27.50;74.30;;;;;;6237314;23;20016;-75
2023/06/22 08:45:03;;;;;;;12.63;11.43;;;27.30;74.90;;;;;;6237234;22;20016;-75
2023/06/22 08:47:29;;;;;;;13.38;12.18;;;27.30;76.60;;;;;;6236506;23;20239;-76
2023/06/22 08:49:55;;;;;;;13.23;12.02;;;27.50;73.20;;;;;;6187101;23;20009;-75
2023/06/22 08:52:20;;;;;;;12.98;11.77;;;27.60;73.30;;;;;;6237750;23;20420;-76
2023/06/22 08:54:47;;;;;;;12.38;11.25;;;27.50;74.70;;;;;;6239081;23;20016;-76
2023/06/22 08:57:13;;;;;;;10.93;9.93;;;27.60;72.20;;;;;;6238479;23;20013;-75
2023/06/22 08:59:39;;;;;;;10.90;9.57;;;27.70;71.40;;;;;;6214053;23;20394;-76
2023/06/22 09:02:05;;;;;;;10.05;9.15;;;27.70;77.50;;;;;;6239072;23;20013;-75
2023/06/22 09:04:34;;;;;;;9.85;8.95;;;28.20;69.40;;;;;;6188698;23;20019;-75
2023/06/22 09:07:03;;;;;;;10.77;9.88;;;28.20;67.60;;;;;;6238168;23;20095;-75
2023/06/22 09:09:29;;;;;;;11.18;10.18;;;28.00;68.40;;;;;;6189062;23;20013;-76
2023/06/22 09:11:54;;;;;;;9.07;8.18;;;28.20;67.40;;;;;;6188313;23;20011;-76
2023/06/22 09:14:20;;;;;;;10.15;9.15;;;28.20;67.80;;;;;;6238680;23;20384;-75
2023/06/22 09:16:46;;;;;;;9.95;9.00;;;28.10;67.50;;;;;;6239047;22;20055;-75
2023/06/22 09:19:11;;;;;;;9.82;8.93;;;28.30;67.60;;;;;;6239025;23;20025;-75
2023/06/22 09:21:37;;;;;;;9.45;8.50;;;28.40;66.40;;;;;;6238880;23;20012;-75
2023/06/22 09:24:03;;;;;;;9.77;8.75;;;28.40;66.10;;;;;;6213598;23;20059;-74
2023/06/22 09:26:29;;;;;;;9.70;8.73;;;28.60;65.00;;;;;;6238032;22;20020;-75
2023/06/22 09:28:54;;;;;;;10.00;8.98;;;28.50;65.50;;;;;;6238638;23;20456;-75
2023/06/22 09:31:25;;;;;;;9.75;8.73;;;28.40;64.80;;;;;;6238775;23;20020;-76
2023/06/22 09:33:54;;;;;;;9.40;8.60;;;28.10;65.80;;;;;;6238875;23;20429;-75
2023/06/22 09:36:21;;;;;;;9.20;8.30;;;28.10;65.90;;;;;;6238469;22;20017;-76
2023/06/22 09:38:47;;;;;;;9.82;8.82;;;28.00;66.60;;;;;;6238777;23;20016;-75
2023/06/22 09:41:12;;;;;;;10.07;9.07;;;28.40;65.60;;;;;;6238414;23;20559;-76
2023/06/22 09:43:38;;;;;;;9.40;8.50;;;28.20;66.00;;;;;;6238453;23;20043;-75
2023/06/22 09:46:03;;;;;;;9.52;8.35;;;28.00;68.90;;;;;;6238126;22;20353;-76
2023/06/22 09:48:30;;;;;;;9.10;8.10;;;28.10;69.70;;;;;;6238603;23;20067;-76
2023/06/22 09:50:56;;;;;;;8.30;7.57;;;28.10;67.90;;;;;;6238287;23;20008;-76
2023/06/22 09:53:22;;;;;;;10.73;8.93;;;28.10;68.40;;;;;;6188175;23;20011;-75
2023/06/22 09:55:47;;;;;;;9.23;8.32;;;28.20;66.80;;;;;;6238114;22;20017;-75
2023/06/22 09:58:13;;;;;;;9.68;8.63;;;28.10;66.50;;;;;;6238525;23;20012;-75
2023/06/22 10:00:38;;;;;;;9.27;8.38;;;27.80;67.20;;;;;;6238489;23;20017;-76
2023/06/22 10:03:04;;;;;;;9.68;8.68;;;27.70;66.60;;;;;;6238541;23;20016;-76
2023/06/22 10:05:29;;;;;;;10.07;9.13;;;27.80;66.70;;;;;;6237574;22;20020;-75
2023/06/22 10:07:55;;;;;;;9.80;8.80;;;27.80;66.80;;;;;;6212866;23;20012;-75
2023/06/22 10:10:21;;;;;;;9.23;8.43;;;28.00;66.30;;;;;;6238435;23;20021;-75
2023/06/22 10:12:54;;;;;;;7.78;6.97;;;28.10;66.50;;;;;;6238397;23;20009;-75
2023/06/22 10:15:21;;;;;;;10.20;9.15;;;28.40;67.70;;;;;;6187781;23;20527;-75
2023/06/22 10:17:47;;;;;;;8.80;7.90;;;29.00;63.30;;;;;;6237199;23;20017;-74
2023/06/22 10:20:13;;;;;;;8.68;7.78;;;29.00;63.00;;;;;;6237904;23;20467;-76
2023/06/22 10:22:41;;;;;;;8.15;7.45;;;28.90;63.00;;;;;;6238084;23;20012;-75
2023/06/22 10:25:07;;;;;;;8.73;7.93;;;29.00;62.80;;;;;;6187969;23;20009;-76
2023/06/22 10:27:32;;;;;;;8.05;7.32;;;29.10;64.40;;;;;;6213971;23;20009;-75
2023/06/22 10:29:58;;;;;;;10.60;8.55;;;29.50;62.40;;;;;;6238339;23;20051;-76
2023/06/22 10:32:24;;;;;;;7.95;7.15;;;29.60;61.50;;;;;;6188018;23;20032;-75
2023/06/22 10:34:49;;;;;;;9.07;8.20;;;29.30;62.00;;;;;;6212679;23;20016;-75
2023/06/22 10:37:15;;;;;;;7.40;6.70;;;29.10;63.10;;;;;;6237429;23;20013;-75
2023/06/22 10:39:40;;;;;;;8.15;7.28;;;28.90;63.10;;;;;;6212910;23;20013;-77
2023/06/22 10:42:06;;;;;;;6.80;6.15;;;28.70;61.90;;;;;;6238118;23;20468;-76
2023/06/22 10:44:32;;;;;;;7.32;6.70;;;28.40;60.60;;;;;;6238088;23;20052;-75
2023/06/22 10:46:57;;;;;;;6.95;6.25;;;28.20;60.70;;;;;;6237261;23;20013;-76
2023/06/22 10:49:23;;;;;;;6.97;6.38;;;27.80;62.10;;;;;;6238064;23;20083;-76
2023/06/22 10:51:48;;;;;;;8.55;6.20;;;27.50;63.90;;;;;;6238084;23;20016;-75
2023/06/22 10:54:14;;;;;;;8.00;7.05;;;27.50;64.70;;;;;;6238080;23;20450;-75
2023/06/22 10:56:40;;;;;;;9.18;8.27;;;27.50;64.50;;;;;;6237599;22;20074;-75
2023/06/22 10:59:06;;;;;;;8.20;7.38;;;27.40;65.00;;;;;;6238021;23;20051;-75
2023/06/22 11:01:33;;;;;;;6.53;5.93;;;27.40;65.50;;;;;;6212348;23;20013;-75
2023/06/22 11:03:58;;;;;;;7.82;7.13;;;27.30;65.40;;;;;;6237881;23;20016;-75
2023/06/22 11:06:24;;;;;;;7.30;6.60;;;27.20;64.60;;;;;;6237470;22;20334;-76
2023/06/22 11:08:50;;;;;;;7.90;6.30;;;27.00;64.90;;;;;;6212553;23;20023;-76
2023/06/22 11:11:17;;;;;;;9.13;7.18;;;26.80;65.90;;;;;;6237415;23;20013;-76
2023/06/22 11:13:43;;;;;;;7.72;7.03;;;26.80;66.10;;;;;;6237800;23;20032;-76
2023/06/22 11:16:10;;;;;;;7.80;7.05;;;26.60;66.60;;;;;;6211984;23;20016;-76
2023/06/22 11:18:35;;;;;;;7.10;6.47;;;26.50;67.50;;;;;;6237841;23;20075;-76
2023/06/22 11:21:01;;;;;;;8.82;7.40;;;26.50;67.00;;;;;;6237920;23;20106;-76
2023/06/22 11:23:27;;;;;;;7.20;6.60;;;26.50;66.40;;;;;;6187081;23;20066;-75
2023/06/22 11:25:56;;;;;;;7.68;6.97;;;26.40;66.10;;;;;;6236722;22;20372;-76
2023/06/22 11:28:21;;;;;;;7.97;6.25;;;26.40;66.00;;;;;;6237641;23;20028;-76
2023/06/22 11:30:47;;;;;;;7.35;6.65;;;26.30;68.30;;;;;;6237744;23;20441;-76
2023/06/22 11:33:12;;;;;;;8.25;7.55;;;26.40;68.00;;;;;;6237737;23;20087;-75
2023/06/22 11:35:38;;;;;;;8.07;7.28;;;26.40;67.60;;;;;;6237549;22;20013;-76
2023/06/22 11:38:04;;;;;;;8.30;7.50;;;26.40;68.60;;;;;;6237435;23;20009;-75
2023/06/22 11:40:30;;;;;;;7.78;7.07;;;26.40;67.50;;;;;;6211996;23;20377;-74
2023/06/22 11:42:56;;;;;;;7.63;6.88;;;26.40;66.80;;;;;;6237764;23;20012;-75
2023/06/22 11:45:22;;;;;;;8.00;7.20;;;26.30;66.20;;;;;;6237497;22;20059;-75
2023/06/22 11:47:47;;;;;;;9.23;7.78;;;26.20;67.50;;;;;;6237241;23;20013;-76
2023/06/22 11:50:13;;;;;;;7.38;6.25;;;26.20;68.40;;;;;;6237617;23;20512;-76
2023/06/22 11:52:38;;;;;;;7.75;6.90;;;26.10;68.40;;;;;;6212449;23;20005;-76
2023/06/22 11:55:06;;;;;;;7.80;7.10;;;26.10;69.40;;;;;;6186608;23;20345;-75
2023/06/22 11:57:37;;;;;;;8.48;7.68;;;26.10;69.20;;;;;;6237622;23;20306;-75
2023/06/22 12:00:13;;;;;;;8.52;7.72;;;26.10;68.70;;;;;;6236813;23;20012;-76
2023/06/22 12:02:39;;;;;;;8.23;7.43;;;26.00;69.40;;;;;;6187318;23;20400;-75
2023/06/22 12:05:05;;;;;;;9.20;8.23;;;26.00;70.70;;;;;;6236917;22;20411;-75
2023/06/22 12:07:31;;;;;;;9.48;8.07;;;26.00;71.30;;;;;;6237083;23;20017;-76
2023/06/22 12:09:56;;;;;;;9.00;8.15;;;26.00;71.80;;;;;;6237552;23;20076;-75
2023/06/22 12:12:22;;;;;;;9.35;8.50;;;26.00;71.00;;;;;;6236883;23;20106;-75
2023/06/22 12:14:47;;;;;;;9.65;7.45;;;26.00;70.60;;;;;;6237181;23;20012;-76
2023/06/22 12:17:13;;;;;;;7.85;6.90;;;26.00;72.40;;;;;;6237256;23;20503;-75
2023/06/22 12:19:38;;;;;;;8.32;7.55;;;26.10;71.50;;;;;;6237477;23;20051;-75
2023/06/22 12:22:04;;;;;;;8.98;8.00;;;26.00;71.40;;;;;;6236964;23;20016;-75
2023/06/22 12:24:30;;;;;;;8.30;7.50;;;26.10;70.80;;;;;;6185168;23;20457;-76
2023/06/22 12:26:55;;;;;;;7.47;6.65;;;26.10;72.80;;;;;;6235761;23;20048;-76
2023/06/22 12:29:21;;;;;;;8.25;7.50;;;26.20;73.30;;;;;;6239303;23;20020;-76
2023/06/22 12:31:46;;;;;;;8.23;7.38;;;26.40;73.50;;;;;;6239384;23;20019;-75
2023/06/22 12:34:12;;;;;;;9.32;8.43;;;26.50;71.10;;;;;;6238986;23;20013;-75
2023/06/22 12:36:38;;;;;;;9.05;8.20;;;26.40;71.70;;;;;;6238296;22;20012;-76
2023/06/22 12:39:03;;;;;;;8.85;7.95;;;26.40;71.00;;;;;;6213501;23;20016;-76
2023/06/22 12:41:29;;;;;;;8.15;7.45;;;26.20;70.00;;;;;;6239201;23;20013;-75
2023/06/22 12:43:54;;;;;;;8.27;7.47;;;26.00;70.40;;;;;;6239230;23;20333;-75
2023/06/22 12:46:20;;;;;;;9.73;8.23;;;25.80;71.40;;;;;;6238883;22;20087;-76
2023/06/22 12:48:45;;;;;;;9.80;8.85;;;25.70;72.40;;;;;;6239233;23;20005;-75
2023/06/22 12:51:11;;;;;;;9.27;8.48;;;25.50;73.20;;;;;;6238320;23;20013;-75
2023/06/22 12:53:37;;;;;;;9.95;9.10;;;25.40;75.50;;;;;;6239291;23;20009;-76
2023/06/22 12:56:02;;;;;;;9.90;8.90;;;25.20;77.50;;;;;;6238713;22;20008;-76
2023/06/22 12:58:28;;;;;;;10.98;8.55;;;25.20;81.90;;;;;;6213916;23;20011;-76
2023/06/22 13:00:53;;;;;;;9.35;8.30;;;25.10;84.00;;;;;;6238498;23;20012;-76
2023/06/22 13:03:19;;;;;;;9.68;8.82;;;25.10;92.50;;;;;;6239033;23;20461;-76
2023/06/22 13:05:45;;;;;;;10.20;9.25;;;25.00;97.30;;;;;;6238707;22;20437;-76
2023/06/22 13:08:10;;;;;;;9.93;9.10;;;25.00;99.80;;;;;;6238930;23;20023;-75
2023/06/22 13:10:36;;;;;;;9.90;9.02;;;24.80;99.90;;;;;;6212506;23;20040;-76
2023/06/22 13:13:02;;;;;;;9.88;8.98;;;24.70;99.90;;;;;;6238887;23;20009;-76
2023/06/22 13:15:30;;;;;;;10.15;9.20;;;24.60;99.90;;;;;;6238745;22;20441;-76
2023/06/22 13:17:56;;;;;;;11.07;9.93;;;24.50;99.90;;;;;;6213853;23;20035;-76
2023/06/22 13:20:22;;;;;;;11.07;10.07;;;24.50;99.90;;;;;;6239006;23;20012;-75
2023/06/22 13:22:47;;;;;;;10.60;9.57;;;24.50;99.90;;;;;;6238274;23;20027;-76
2023/06/22 13:25:18;;;;;;;10.57;9.50;;;24.40;99.90;;;;;;6213296;23;20016;-76
2023/06/22 13:27:44;;;;;;;11.75;10.05;;;24.20;99.90;;;;;;6238541;23;20106;-76
2023/06/22 13:30:10;;;;;;;11.20;10.13;;;24.20;99.90;;;;;;6238822;23;20013;-76
2023/06/22 13:32:36;;;;;;;11.35;10.25;;;24.20;99.90;;;;;;6238813;23;20020;-76
2023/06/22 13:35:02;;;;;;;12.32;11.20;;;24.20;99.90;;;;;;6188610;23;20013;-76
2023/06/22 13:37:27;;;;;;;11.77;10.85;;;24.20;99.90;;;;;;6238489;23;20012;-76
2023/06/22 13:39:53;;;;;;;12.00;10.85;;;24.10;99.90;;;;;;6238100;23;20012;-76
2023/06/22 13:42:18;;;;;;;11.90;10.80;;;24.20;99.90;;;;;;6238722;23;20043;-75
2023/06/22 13:44:44;;;;;;;11.90;10.75;;;24.10;99.90;;;;;;6187458;23;20095;-75
2023/06/22 13:47:09;;;;;;;11.20;10.20;;;24.10;99.90;;;;;;6238245;23;20013;-76
2023/06/22 13:49:35;;;;;;;11.77;10.70;;;24.10;99.90;;;;;;6238561;23;20015;-76
2023/06/22 13:52:03;;;;;;;11.65;10.50;;;24.00;99.90;;;;;;6238111;23;20384;-76
2023/06/22 13:54:28;;;;;;;12.25;11.15;;;24.00;99.90;;;;;;6238344;23;20008;-76
2023/06/22 13:56:54;;;;;;;12.05;10.85;;;24.10;99.90;;;;;;6238302;23;20049;-76
2023/06/22 13:59:20;;;;;;;11.82;10.82;;;24.00;99.90;;;;;;6238111;23;20013;-76
2023/06/22 14:01:46;;;;;;;13.07;11.35;;;24.00;99.90;;;;;;6188062;23;20063;-76
2023/06/22 14:04:12;;;;;;;12.18;11.07;;;23.90;99.90;;;;;;6188294;23;20013;-75
2023/06/22 14:06:38;;;;;;;12.32;11.27;;;23.90;99.90;;;;;;6237499;22;20352;-76
2023/06/22 14:09:04;;;;;;;11.77;10.77;;;23.80;99.90;;;;;;6238313;23;20013;-76
2023/06/22 14:11:29;;;;;;;12.90;11.70;;;23.80;99.90;;;;;;6238492;23;20024;-76
2023/06/22 14:13:55;;;;;;;13.07;11.95;;;23.60;99.90;;;;;;6187719;23;20015;-75
2023/06/22 14:16:20;;;;;;;14.48;13.13;;;23.50;99.90;;;;;;6237850;22;20051;-76
2023/06/22 14:18:46;;;;;;;14.38;12.98;;;23.30;99.90;;;;;;6238299;23;20036;-75
2023/06/22 14:21:12;;;;;;;14.48;13.13;;;23.20;99.90;;;;;;6237716;23;20349;-76
2023/06/22 14:23:37;;;;;;;15.25;13.85;;;23.10;99.90;;;;;;6238230;23;20069;-76
2023/06/22 14:26:03;;;;;;;15.30;13.98;;;23.00;99.90;;;;;;6237847;22;20013;-76
2023/06/22 14:28:29;;;;;;;15.35;14.05;;;22.90;99.90;;;;;;6238300;23;20150;-77
2023/06/22 14:30:54;;;;;;;16.58;15.15;;;22.70;99.90;;;;;;6237787;23;20088;-76
2023/06/22 14:33:20;;;;;;;16.25;14.95;;;22.50;99.90;;;;;;6237551;23;20378;-76
2023/06/22 14:35:45;;;;;;;16.40;15.10;;;22.40;99.90;;;;;;6237711;22;20012;-76
2023/06/22 14:38:11;;;;;;;16.63;15.05;;;22.30;99.90;;;;;;6237498;23;20047;-75
2023/06/22 14:40:36;;;;;;;18.50;17.00;;;22.20;99.90;;;;;;6238052;23;20040;-76
2023/06/22 14:43:02;;;;;;;19.20;17.52;;;22.10;99.90;;;;;;6238107;23;20020;-76
2023/06/22 14:45:28;;;;;;;18.83;17.33;;;22.10;99.90;;;;;;6237545;22;20094;-76
2023/06/22 14:47:53;;;;;;;19.55;17.92;;;22.00;99.90;;;;;;6237267;23;20048;-76
2023/06/22 14:50:19;;;;;;;21.23;19.63;;;21.90;99.90;;;;;;6237895;23;20012;-76
2023/06/22 14:52:45;;;;;;;20.27;18.63;;;21.80;99.90;;;;;;6238044;23;20004;-76
2023/06/22 14:55:10;;;;;;;21.52;19.83;;;21.70;99.90;;;;;;6237912;22;20345;-76
2023/06/22 14:57:36;;;;;;;23.63;21.83;;;21.70;99.90;;;;;;6237690;23;20016;-76
2023/06/22 15:00:02;;;;;;;20.65;18.92;;;21.70;99.90;;;;;;6237454;23;20016;-76
2023/06/22 15:02:28;;;;;;;19.60;18.10;;;21.60;99.90;;;;;;6237707;23;20015;-76
2023/06/22 15:04:54;;;;;;;22.17;20.23;;;21.50;99.90;;;;;;6237844;22;20091;-76
2023/06/22 15:07:19;;;;;;;21.55;19.80;;;21.40;99.90;;;;;;6237509;23;20031;-76
2023/06/22 15:09:45;;;;;;;22.38;20.50;;;21.40;99.90;;;;;;6237917;23;20392;-76
2023/06/22 15:12:11;;;;;;;25.67;23.58;;;21.40;99.90;;;;;;6237792;23;20040;-76
2023/06/22 15:14:41;;;;;;;28.00;25.58;;;21.30;99.90;;;;;;6237164;23;20020;-76
2023/06/22 16:08:15;;;;;;;26.98;24.42;;;20.20;99.90;;;;;;6170584;22;20027;-77
2023/06/22 16:10:41;;;;;;;24.10;22.20;;;20.10;99.90;;;;;;6214859;23;20008;-77
2023/06/22 16:13:06;;;;;;;26.38;24.00;;;20.10;99.90;;;;;;6214700;23;20008;-77
2023/06/22 16:15:32;;;;;;;23.15;21.20;;;20.00;99.90;;;;;;6213454;23;20020;-79
2023/06/22 16:17:58;;;;;;;23.50;21.33;;;20.00;99.90;;;;;;6188803;23;20012;-76
2023/06/22 16:20:23;;;;;;;23.95;21.88;;;20.00;99.90;;;;;;6239634;23;20023;-79
2023/06/22 16:22:49;;;;;;;30.38;27.52;;;20.00;99.90;;;;;;6190179;23;20023;-76
2023/06/22 16:25:15;;;;;;;19.10;17.50;;;19.90;99.90;;;;;;6238842;23;20023;-75
2023/06/22 16:27:41;;;;;;;19.45;17.75;;;19.90;99.90;;;;;;6238130;22;20349;-76